WB5RMG-9 Weather Reports


Display with metric or nautical units.
time (UTC)temp
F
wind
direction
speed
MPH
gust
MPH
rain 1hr
in
rain 24hr
in
rain mn
in
humidity
%
barometer
mb
20230128232508 53 197 2.0 3.0 0.00 0.00 0.00 33 1028.5
20230128232007 53 197 0.0 1.0 0.00 0.00 0.00 33 1028.5
20230128231507 53 197 0.0 3.0 0.00 0.00 0.00 32 1028.4
20230128231007 54 197 1.0 3.0 0.00 0.00 0.00 32 1028.4
20230128230507 54 197 1.0 3.0 0.00 0.00 0.00 32 1028.3
20230128230008 55 197 0.0 1.0 0.00 0.00 0.00 31 1028.2
20230128225007 56 197 1.0 2.0 0.00 0.00 0.00 31 1028.2
20230128224507 56 197 1.0 2.0 0.00 0.00 0.00 31 1028.2
20230128224007 57 197 1.0 2.0 0.00 0.00 0.00 30 1028.2
20230128223509 58 197 0.0 1.0 0.00 0.00 0.00 30 1028.2
20230128223008 58 197 1.0 2.0 0.00 0.00 0.00 30 1028.0
20230128222509 58 197 1.0 3.0 0.00 0.00 0.00 29 1028.0
20230128222007 59 194 1.0 3.0 0.00 0.00 0.00 29 1028.1
20230128221507 59 192 2.0 5.0 0.00 0.00 0.00 29 1027.9
20230128221007 60 195 2.0 5.0 0.00 0.00 0.00 29 1027.8
20230128215507 60 197 2.0 3.0 0.00 0.00 0.00 29 1027.9
20230128215007 60 196 2.0 3.0 0.00 0.00 0.00 29 1027.9
20230128214507 60 169 2.0 5.0 0.00 0.00 0.00 29 1027.9
20230128214007 60 215 3.0 6.0 0.00 0.00 0.00 29 1027.9
20230128213507 60 192 2.0 5.0 0.00 0.00 0.00 29 1027.9
20230128213008 60 190 2.0 5.0 0.00 0.00 0.00 29 1027.8
20230128212507 60 188 3.0 7.0 0.00 0.00 0.00 29 1027.7
20230128212007 60 284 3.0 5.0 0.00 0.00 0.00 28 1027.9
20230128211507 60 190 2.0 7.0 0.00 0.00 0.00 28 1027.9
20230128211007 61 195 2.0 7.0 0.00 0.00 0.00 28 1027.8
20230128210507 61 204 3.0 9.0 0.00 0.00 0.00 27 1027.7
20230128205507 63 160 3.0 8.0 0.00 0.00 0.00 28 1027.9
20230128205007 63 168 3.0 7.0 0.00 0.00 0.00 28 1027.9
20230128204506 63 249 2.0 3.0 0.00 0.00 0.00 29 1027.7
20230128204006 63 225 2.0 5.0 0.00 0.00 0.00 28 1027.8
20230128202506 63 259 2.0 5.0 0.00 0.00 0.00 29 1027.8
20230128202007 63 151 2.0 6.0 0.00 0.00 0.00 29 1027.7
20230128201508 63 183 1.0 5.0 0.00 0.00 0.00 28 1027.7
20230128200506 63 213 4.0 8.0 0.00 0.00 0.00 28 1027.9
20230128200007 63 229 2.0 3.0 0.00 0.00 0.00 28 1027.8
20230128194507 64 186 3.0 6.0 0.00 0.00 0.00 29 1027.9
20230128194007 64 173 4.0 9.0 0.00 0.00 0.00 29 1027.9
20230128193506 64 179 3.0 6.0 0.00 0.00 0.00 29 1027.9
20230128192507 64 248 3.0 5.0 0.00 0.00 0.00 30 1028.0
20230128192007 63 287 1.0 5.0 0.00 0.00 0.00 29 1028.0
20230128191507 63 309 4.0 7.0 0.00 0.00 0.00 28 1028.3
20230128191007 63 303 5.0 8.0 0.00 0.00 0.00 28 1028.4
20230128190507 63 301 4.0 6.0 0.00 0.00 0.00 29 1028.4
20230128190007 62 264 4.0 8.0 0.00 0.00 0.00 29 1028.4
20230128184507 61 271 5.0 9.0 0.00 0.00 0.00 30 1028.6
20230128184006 61 307 3.0 6.0 0.00 0.00 0.00 30 1028.7
20230128183507 61 207 3.0 6.0 0.00 0.00 0.00 31 1028.7
20230128183007 60 220 3.0 8.0 0.00 0.00 0.00 31 1028.8
20230128182007 59 243 3.0 6.0 0.00 0.00 0.00 31 1028.9
20230128181507 58 292 2.0 7.0 0.00 0.00 0.00 31 1029.0
20230128181007 58 278 5.0 8.0 0.00 0.00 0.00 31 1029.1
20230128180006 57 292 5.0 8.0 0.00 0.00 0.00 31 1029.1
20230128175506 57 253 3.0 6.0 0.00 0.00 0.00 32 1029.3
20230128175007 56 227 3.0 5.0 0.00 0.00 0.00 33 1029.4
20230128174007 56 268 5.0 9.0 0.00 0.00 0.00 32 1029.4
20230128173506 56 327 3.0 6.0 0.00 0.00 0.00 33 1029.5
20230128173008 55 261 2.0 5.0 0.00 0.00 0.00 33 1029.6
20230128172506 54 284 2.0 8.0 0.00 0.00 0.00 32 1029.7
20230128172007 54 303 7.0 12.0 0.00 0.00 0.00 33 1029.7
20230128170506 53 246 4.0 7.0 0.00 0.00 0.00 33 1030.0
20230128170007 53 286 4.0 8.0 0.00 0.00 0.00 33 1030.0
20230128165006 53 303 6.0 9.0 0.00 0.00 0.00 33 1030.0
20230128164506 53 294 5.0 8.0 0.00 0.00 0.00 34 1030.1
20230128164007 52 278 3.0 6.0 0.00 0.00 0.00 35 1030.2
20230128163006 51 228 2.0 7.0 0.00 0.00 0.00 35 1030.3
20230128161506 50 294 3.0 7.0 0.00 0.00 0.00 37 1030.6
20230128161006 50 248 3.0 6.0 0.00 0.00 0.00 38 1030.8
20230128160507 49 308 4.0 7.0 0.00 0.00 0.00 38 1030.7
20230128160006 49 314 2.0 7.0 0.00 0.00 0.00 39 1030.8
20230128155506 48 331 2.0 5.0 0.00 0.00 0.00 39 1030.9
20230128155006 48 305 5.0 8.0 0.00 0.00 0.00 39 1030.9
20230128154506 48 307 5.0 7.0 0.00 0.00 0.00 39 1030.9
20230128154007 47 322 3.0 7.0 0.00 0.00 0.00 40 1030.9
20230128153507 47 298 3.0 6.0 0.00 0.00 0.00 41 1031.0
20230128153006 46 306 3.0 5.0 0.00 0.00 0.00 42 1030.9
20230128152506 45 284 3.0 5.0 0.00 0.00 0.00 42 1030.9
20230128152006 45 252 2.0 5.0 0.00 0.00 0.00 44 1030.9
20230128151006 44 298 3.0 6.0 0.00 0.00 0.00 44 1030.9
20230128150506 43 255 2.0 5.0 0.00 0.00 0.00 45 1031.1
20230128150007 43 273 3.0 6.0 0.00 0.00 0.00 45 1031.1
20230128145506 42 252 3.0 6.0 0.00 0.00 0.00 46 1031.0
20230128145007 42 270 3.0 5.0 0.00 0.00 0.00 46 1030.9
20230128144506 41 271 2.0 5.0 0.00 0.00 0.00 46 1030.9
20230128144006 41 286 2.0 7.0 0.00 0.00 0.00 46 1030.8
20230128143507 40 285 2.0 6.0 0.00 0.00 0.00 47 1030.7
20230128143006 40 277 3.0 7.0 0.00 0.00 0.00 47 1030.8
20230128142506 39 280 2.0 5.0 0.00 0.00 0.00 48 1030.8
20230128142006 39 277 3.0 6.0 0.00 0.00 0.00 48 1030.6
20230128141007 38 272 3.0 5.0 0.00 0.00 0.00 48 1030.5
20230128140506 38 196 3.0 5.0 0.00 0.00 0.00 48 1030.5
20230128135506 38 273 2.0 5.0 0.00 0.00 0.00 48 1030.4
20230128135006 38 202 3.0 6.0 0.00 0.00 0.00 48 1030.3
20230128134506 38 298 3.0 8.0 0.00 0.00 0.00 48 1030.2
20230128133507 37 278 3.0 8.0 0.00 0.00 0.00 48 1029.9
20230128133006 37 235 5.0 7.0 0.00 0.00 0.00 48 1029.8
20230128132506 36 281 3.0 5.0 0.00 0.00 0.00 49 1029.7
20230128131506 36 259 2.0 5.0 0.00 0.00 0.00 50 1029.5
20230128130006 35 283 1.0 3.0 0.00 0.00 0.00 51 1029.3
20230128125516 34 283 1.0 3.0 0.00 0.00 0.00 51 1029.1
20230128125007 34 288 1.0 3.0 0.00 0.00 0.00 51 1029.0
20230128124506 33 288 2.0 3.0 0.00 0.00 0.00 51 1029.0
20230128123507 32 277 1.0 3.0 0.00 0.00 0.00 51 1028.8
20230128123007 32 277 0.0 2.0 0.00 0.00 0.00 51 1028.8
20230128122506 32 277 0.0 2.0 0.00 0.00 0.00 51 1028.8
20230128122006 32 277 1.0 2.0 0.00 0.00 0.00 51 1028.7
20230128121506 32 277 0.0 1.0 0.00 0.00 0.00 50 1028.7
20230128120506 32 277 0.0 0.0 0.00 0.00 0.00 50 1028.6
20230128120006 33 277 0.0 0.0 0.00 0.00 0.00 50 1028.6
20230128115506 33 277 0.0 0.0 0.00 0.00 0.00 50 1028.4
20230128114506 33 277 0.0 0.0 0.00 0.00 0.00 50 1028.4
20230128114007 34 277 0.0 0.0 0.00 0.00 0.00 49 1028.4
20230128113007 34 277 0.0 1.0 0.00 0.00 0.00 50 1028.2
20230128112506 34 277 0.0 0.0 0.00 0.00 0.00 50 1028.3
20230128112006 34 277 0.0 0.0 0.00 0.00 0.00 49 1028.3
20230128111508 34 277 0.0 2.0 0.00 0.00 0.00 49 1028.2
20230128111007 34 277 1.0 2.0 0.00 0.00 0.00 50 1028.3
20230128110006 35 277 2.0 3.0 0.00 0.00 0.00 50 1028.4
20230128105508 35 277 1.0 3.0 0.00 0.00 0.00 50 1028.5
20230128105008 35 277 1.0 3.0 0.00 0.00 0.00 50 1028.6
20230128104516 35 277 2.0 5.0 0.00 0.00 0.00 50 1028.5
20230128104009 35 275 2.0 3.0 0.00 0.00 0.00 50 1028.5
20230128103508 35 274 2.0 3.0 0.00 0.00 0.00 50 1028.5
20230128103007 35 243 2.0 6.0 0.00 0.00 0.00 50 1028.4
20230128102009 35 232 3.0 3.0 0.00 0.00 0.00 49 1028.3
20230128101507 35 293 2.0 5.0 0.00 0.00 0.00 49 1028.3
20230128101009 35 294 2.0 3.0 0.00 0.00 0.00 49 1028.2
20230128100508 35 292 3.0 5.0 0.00 0.00 0.00 49 1028.2
20230128100007 35 278 2.0 3.0 0.00 0.00 0.00 49 1027.9
20230128095507 35 277 2.0 5.0 0.00 0.00 0.00 49 1027.8
20230128095009 35 278 3.0 6.0 0.00 0.00 0.00 49 1027.9
20230128094506 35 261 3.0 5.0 0.00 0.00 0.00 49 1027.9
20230128094007 35 278 2.0 5.0 0.00 0.00 0.00 49 1027.7
20230128093507 35 287 2.0 3.0 0.00 0.00 0.00 49 1027.8
20230128093007 35 287 2.0 3.0 0.00 0.00 0.00 49 1027.6
20230128092508 35 287 1.0 3.0 0.00 0.00 0.00 49 1027.7
20230128092010 35 289 2.0 5.0 0.00 0.00 0.00 49 1027.8
20230128091509 35 282 2.0 3.0 0.00 0.00 0.00 49 1027.8
20230128091011 35 283 2.0 3.0 0.00 0.00 0.00 48 1027.8
20230128090508 35 284 2.0 3.0 0.00 0.00 0.00 49 1027.8
20230128090008 34 285 2.0 5.0 0.00 0.00 0.00 49 1027.8
20230128085508 34 271 2.0 5.0 0.00 0.00 0.00 48 1027.7
20230128085008 34 264 2.0 3.0 0.00 0.00 0.00 48 1027.7
20230128084508 34 266 1.0 3.0 0.00 0.00 0.00 47 1027.7
20230128084008 34 263 1.0 3.0 0.00 0.00 0.00 47 1027.5
20230128083507 34 263 2.0 3.0 0.00 0.00 0.00 47 1027.3
20230128083007 34 259 1.0 3.0 0.00 0.00 0.00 46 1027.4
20230128082508 34 259 0.0 1.0 0.00 0.00 0.00 46 1027.2
20230128082007 34 259 1.0 2.0 0.00 0.00 0.00 46 1027.2
20230128081507 34 259 1.0 2.0 0.00 0.00 0.00 46 1027.2
20230128080507 34 259 1.0 3.0 0.00 0.00 0.00 45 1026.8
20230128080006 34 259 0.0 2.0 0.00 0.00 0.00 45 1026.8
20230128075506 34 259 1.0 3.0 0.00 0.00 0.00 44 1026.7
20230128075006 34 259 0.0 0.0 0.00 0.00 0.00 44 1026.7
20230128074506 34 259 0.0 0.0 0.00 0.00 0.00 44 1026.6
20230128074009 35 259 0.0 0.0 0.00 0.00 0.00 44 1026.4
20230128073507 35 259 0.0 3.0 0.00 0.00 0.00 44 1026.2
20230128073008 35 259 0.0 2.0 0.00 0.00 0.00 44 1026.1
20230128072507 35 259 0.0 0.0 0.00 0.00 0.00 44 1026.4
20230128072007 35 259 0.0 0.0 0.00 0.00 0.00 44 1026.4
20230128071506 35 259 0.0 2.0 0.00 0.00 0.00 44 1026.5
20230128070506 35 259 1.0 2.0 0.00 0.00 0.00 43 1026.7
20230128070008 35 259 0.0 0.0 0.00 0.00 0.00 43 1026.6
20230128065507 36 259 0.0 0.0 0.00 0.00 0.00 43 1026.5
20230128065008 36 259 0.0 0.0 0.00 0.00 0.00 43 1026.5
20230128064507 36 259 0.0 0.0 0.00 0.00 0.00 42 1026.5
20230128064007 36 259 0.0 0.0 0.00 0.00 0.00 42 1026.4
20230128062507 36 259 1.0 3.0 0.00 0.00 0.00 42 1026.4
20230128062007 36 259 1.0 3.0 0.00 0.00 0.00 42 1026.5
20230128061506 36 259 1.0 3.0 0.00 0.00 0.00 42 1026.4
20230128061006 36 259 1.0 3.0 0.00 0.00 0.00 42 1026.4
20230128060507 36 259 0.0 2.0 0.00 0.00 0.00 42 1026.4
20230128055506 36 259 0.0 2.0 0.00 0.00 0.00 41 1026.3
20230128055006 36 259 0.0 2.0 0.00 0.00 0.00 41 1026.4
20230128054506 37 259 0.0 2.0 0.00 0.00 0.00 41 1026.4
20230128053506 37 259 1.0 3.0 0.00 0.00 0.00 41 1026.5
20230128053006 36 257 2.0 3.0 0.00 0.00 0.00 41 1026.4
20230128052505 37 217 0.0 3.0 0.00 0.00 0.00 40 1026.4
20230128052006 37 216 0.0 2.0 0.00 0.00 0.00 40 1026.4
20230128051006 37 216 1.0 3.0 0.00 0.00 0.00 40 1026.2
20230128050505 37 216 1.0 3.0 0.00 0.00 0.00 40 1026.2
20230128050006 37 215 1.0 3.0 0.00 0.00 0.00 40 1026.3
20230128045505 37 215 1.0 2.0 0.00 0.00 0.00 40 1026.2
20230128045005 37 214 1.0 2.0 0.00 0.00 0.00 40 1026.2
20230128043506 38 214 2.0 3.0 0.00 0.00 0.00 39 1026.2
20230128042505 38 214 2.0 3.0 0.00 0.00 0.00 39 1026.2
20230128042006 38 215 1.0 3.0 0.00 0.00 0.00 39 1026.0
20230128041007 38 196 1.0 3.0 0.00 0.00 0.00 39 1026.0
20230128040505 38 198 1.0 3.0 0.00 0.00 0.00 39 1026.0
20230128040006 38 194 3.0 3.0 0.00 0.00 0.00 39 1026.1
20230128035505 38 191 2.0 5.0 0.00 0.00 0.00 39 1026.1
20230128035006 38 193 2.0 5.0 0.00 0.00 0.00 39 1026.1
20230128034505 38 178 3.0 5.0 0.00 0.00 0.00 39 1026.0
20230128034009 38 187 3.0 7.0 0.00 0.00 0.00 39 1026.0
20230128033506 38 191 3.0 6.0 0.00 0.00 0.00 38 1026.0
20230128033005 38 210 1.0 3.0 0.00 0.00 0.00 39 1025.9
20230128032505 38 214 2.0 5.0 0.00 0.00 0.00 39 1026.0
20230128032006 38 216 3.0 5.0 0.00 0.00 0.00 38 1025.9
20230128031505 38 190 2.0 3.0 0.00 0.00 0.00 38 1025.9
20230128031005 38 194 2.0 3.0 0.00 0.00 0.00 37 1026.0
20230128030507 38 189 2.0 3.0 0.00 0.00 0.00 37 1026.0
20230128030006 38 185 2.0 3.0 0.00 0.00 0.00 37 1025.9
20230128025506 38 185 1.0 3.0 0.00 0.00 0.00 37 1025.9
20230128025006 38 185 2.0 3.0 0.00 0.00 0.00 37 1025.8
20230128024505 38 185 1.0 3.0 0.00 0.00 0.00 37 1025.8
20230128024006 38 184 2.0 3.0 0.00 0.00 0.00 37 1025.6
20230128023506 38 187 2.0 3.0 0.00 0.00 0.00 37 1025.7
20230128023005 38 270 2.0 3.0 0.00 0.00 0.00 37 1025.6
20230128022505 38 280 2.0 3.0 0.00 0.00 0.00 37 1025.7
20230128020506 38 281 0.0 1.0 0.00 0.00 0.00 36 1025.5
20230128020005 38 281 0.0 3.0 0.00 0.00 0.00 36 1025.5
20230128015006 39 281 1.0 3.0 0.00 0.00 0.00 36 1025.5
20230128014505 39 281 0.0 0.0 0.00 0.00 0.00 35 1025.5
20230128014005 39 281 0.0 0.0 0.00 0.00 0.00 34 1025.6
20230128013006 39 281 0.0 2.0 0.00 0.00 0.00 34 1025.6
20230128012505 39 281 0.0 0.0 0.00 0.00 0.00 34 1025.6
20230128012005 40 281 0.0 2.0 0.00 0.00 0.00 34 1025.5
20230128011504 40 281 0.0 1.0 0.00 0.00 0.00 33 1025.3
20230128010505 40 281 0.0 1.0 0.00 0.00 0.00 33 1025.4
20230128010006 40 281 0.0 0.0 0.00 0.00 0.00 33 1025.3
20230128005505 41 281 0.0 1.0 0.00 0.00 0.00 33 1025.3
20230128005005 41 281 0.0 1.0 0.00 0.00 0.00 33 1025.4
20230128004506 41 281 1.0 2.0 0.00 0.00 0.00 33 1025.3
20230128004007 41 281 1.0 2.0 0.00 0.00 0.00 33 1025.4
20230128003005 41 281 1.0 3.0 0.00 0.00 0.00 33 1025.3
20230128002505 41 281 1.0 3.0 0.00 0.00 0.00 33 1025.3
20230128001506 41 281 1.0 2.0 0.00 0.00 0.00 32 1025.2
20230128001006 42 281 1.0 3.0 0.00 0.00 0.00 32 1025.1
20230128000505 42 281 1.0 2.0 0.00 0.00 0.00 31 1024.9
20230128000006 42 281 0.0 2.0 0.00 0.00 0.00 31 1024.8
20230127235004 43 281 0.0 1.0 0.00 0.00 0.00 31 1024.6
20230127234505 43 281 1.0 2.0 0.00 0.00 0.00 30 1024.5
20230127234005 43 281 0.0 1.0 0.00 0.00 0.00 30 1024.4
20230127233506 44 281 0.0 2.0 0.00 0.00 0.00 29 1024.4
20230127233006 44 281 0.0 1.0 0.00 0.00 0.00 29 1024.3